sensor_id;sensor_type;location;lat;lon;timestamp;temperature;humidity
20446;DHT22;10382;49.140;9.234;2023-11-21T00:01:33;10.50;99.90
20446;DHT22;10382;49.140;9.234;2023-11-21T00:04:00;10.50;99.90
20446;DHT22;10382;49.140;9.234;2023-11-21T00:06:27;10.40;99.90
20446;DHT22;10382;49.140;9.234;2023-11-21T00:08:55;10.50;99.90
20446;DHT22;10382;49.140;9.234;2023-11-21T00:11:22;10.50;99.90
20446;DHT22;10382;49.140;9.234;2023-11-21T00:13:50;10.50;99.90
20446;DHT22;10382;49.140;9.234;2023-11-21T00:16:19;10.50;99.90
20446;DHT22;10382;49.140;9.234;2023-11-21T00:18:47;10.40;99.90
20446;DHT22;10382;49.140;9.234;2023-11-21T00:21:14;10.60;99.90
20446;DHT22;10382;49.140;9.234;2023-11-21T00:23:41;10.50;99.90
20446;DHT22;10382;49.140;9.234;2023-11-21T00:26:08;10.50;99.90
20446;DHT22;10382;49.140;9.234;2023-11-21T00:28:35;10.50;99.90
20446;DHT22;10382;49.140;9.234;2023-11-21T00:31:02;10.50;99.90
20446;DHT22;10382;49.140;9.234;2023-11-21T00:33:31;10.50;99.90
20446;DHT22;10382;49.140;9.234;2023-11-21T00:35:58;10.50;99.90
20446;DHT22;10382;49.140;9.234;2023-11-21T00:38:26;10.50;99.90
20446;DHT22;10382;49.140;9.234;2023-11-21T00:40:53;10.50;99.90
20446;DHT22;10382;49.140;9.234;2023-11-21T00:43:21;10.50;99.90
20446;DHT22;10382;49.140;9.234;2023-11-21T00:45:48;10.50;99.90
20446;DHT22;10382;49.140;9.234;2023-11-21T00:48:15;10.30;99.90
20446;DHT22;10382;49.140;9.234;2023-11-21T00:50:44;10.30;99.90
20446;DHT22;10382;49.140;9.234;2023-11-21T00:53:11;10.20;99.90
20446;DHT22;10382;49.140;9.234;2023-11-21T00:55:38;10.20;99.90
20446;DHT22;10382;49.140;9.234;2023-11-21T00:58:05;10.30;99.90
20446;DHT22;10382;49.140;9.234;2023-11-21T01:00:32;10.30;99.90
20446;DHT22;10382;49.140;9.234;2023-11-21T01:02:59;10.40;99.90
20446;DHT22;10382;49.140;9.234;2023-11-21T01:05:26;10.50;99.90
20446;DHT22;10382;49.140;9.234;2023-11-21T01:07:54;10.50;99.90
20446;DHT22;10382;49.140;9.234;2023-11-21T01:10:21;10.40;99.90
20446;DHT22;10382;49.140;9.234;2023-11-21T01:12:48;10.40;99.90
20446;DHT22;10382;49.140;9.234;2023-11-21T01:15:15;10.40;99.90
20446;DHT22;10382;49.140;9.234;2023-11-21T01:17:42;10.30;99.90
20446;DHT22;10382;49.140;9.234;2023-11-21T01:20:10;10.30;99.90
20446;DHT22;10382;49.140;9.234;2023-11-21T01:22:38;10.10;99.90
20446;DHT22;10382;49.140;9.234;2023-11-21T01:25:07;10.00;99.90
20446;DHT22;10382;49.140;9.234;2023-11-21T01:27:34;10.00;99.90
20446;DHT22;10382;49.140;9.234;2023-11-21T01:30:01;9.90;99.90
20446;DHT22;10382;49.140;9.234;2023-11-21T01:32:29;9.80;99.90
20446;DHT22;10382;49.140;9.234;2023-11-21T01:34:55;9.70;99.90
20446;DHT22;10382;49.140;9.234;2023-11-21T01:37:22;9.80;99.90
20446;DHT22;10382;49.140;9.234;2023-11-21T01:39:50;9.80;99.90
20446;DHT22;10382;49.140;9.234;2023-11-21T01:42:18;9.90;99.90
20446;DHT22;10382;49.140;9.234;2023-11-21T01:44:44;10.00;99.90
20446;DHT22;10382;49.140;9.234;2023-11-21T01:47:12;10.10;99.90
20446;DHT22;10382;49.140;9.234;2023-11-21T01:49:39;10.10;99.90
20446;DHT22;10382;49.140;9.234;2023-11-21T01:52:08;10.20;99.90
20446;DHT22;10382;49.140;9.234;2023-11-21T01:54:36;10.20;99.90
20446;DHT22;10382;49.140;9.234;2023-11-21T01:57:04;10.30;99.90
20446;DHT22;10382;49.140;9.234;2023-11-21T01:59:34;10.40;99.90
20446;DHT22;10382;49.140;9.234;2023-11-21T02:02:02;10.50;99.90
20446;DHT22;10382;49.140;9.234;2023-11-21T02:04:30;10.70;99.90
20446;DHT22;10382;49.140;9.234;2023-11-21T02:06:57;10.70;99.90
20446;DHT22;10382;49.140;9.234;2023-11-21T02:09:25;10.70;99.90
20446;DHT22;10382;49.140;9.234;2023-11-21T02:11:52;10.60;99.90
20446;DHT22;10382;49.140;9.234;2023-11-21T02:14:20;10.70;99.90
20446;DHT22;10382;49.140;9.234;2023-11-21T02:16:50;10.70;99.90
20446;DHT22;10382;49.140;9.234;2023-11-21T02:19:18;10.70;99.90
20446;DHT22;10382;49.140;9.234;2023-11-21T02:21:49;10.70;99.90
20446;DHT22;10382;49.140;9.234;2023-11-21T02:24:18;10.70;99.90
20446;DHT22;10382;49.140;9.234;2023-11-21T02:26:45;10.70;99.90
20446;DHT22;10382;49.140;9.234;2023-11-21T02:29:12;10.60;99.90
20446;DHT22;10382;49.140;9.234;2023-11-21T02:31:52;10.50;99.90
20446;DHT22;10382;49.140;9.234;2023-11-21T02:34:20;10.40;99.90
20446;DHT22;10382;49.140;9.234;2023-11-21T02:36:48;10.30;99.90
20446;DHT22;10382;49.140;9.234;2023-11-21T02:39:15;10.40;99.90
20446;DHT22;10382;49.140;9.234;2023-11-21T02:41:43;10.40;99.90
20446;DHT22;10382;49.140;9.234;2023-11-21T02:44:10;10.40;99.90
20446;DHT22;10382;49.140;9.234;2023-11-21T02:46:37;10.50;99.90
20446;DHT22;10382;49.140;9.234;2023-11-21T02:49:04;10.40;99.90
20446;DHT22;10382;49.140;9.234;2023-11-21T02:51:32;10.40;99.90
20446;DHT22;10382;49.140;9.234;2023-11-21T02:53:59;10.40;99.90
20446;DHT22;10382;49.140;9.234;2023-11-21T02:56:28;10.40;99.90
20446;DHT22;10382;49.140;9.234;2023-11-21T02:58:59;10.30;99.90
20446;DHT22;10382;49.140;9.234;2023-11-21T03:01:26;10.30;99.90
20446;DHT22;10382;49.140;9.234;2023-11-21T03:03:53;10.30;99.90
20446;DHT22;10382;49.140;9.234;2023-11-21T03:06:20;10.20;99.90
20446;DHT22;10382;49.140;9.234;2023-11-21T03:08:47;10.20;99.90
20446;DHT22;10382;49.140;9.234;2023-11-21T03:11:14;10.20;99.90
20446;DHT22;10382;49.140;9.234;2023-11-21T03:13:41;10.30;99.90
20446;DHT22;10382;49.140;9.234;2023-11-21T03:16:10;10.30;99.90
20446;DHT22;10382;49.140;9.234;2023-11-21T03:18:37;10.40;99.90
20446;DHT22;10382;49.140;9.234;2023-11-21T03:21:05;10.60;99.90
20446;DHT22;10382;49.140;9.234;2023-11-21T03:23:34;10.50;99.90
20446;DHT22;10382;49.140;9.234;2023-11-21T03:26:01;10.50;99.90
20446;DHT22;10382;49.140;9.234;2023-11-21T03:28:28;10.40;99.90
20446;DHT22;10382;49.140;9.234;2023-11-21T03:30:55;10.30;99.90
20446;DHT22;10382;49.140;9.234;2023-11-21T03:33:24;10.30;99.90
20446;DHT22;10382;49.140;9.234;2023-11-21T03:35:51;10.30;99.90
20446;DHT22;10382;49.140;9.234;2023-11-21T03:38:18;10.30;99.90
20446;DHT22;10382;49.140;9.234;2023-11-21T03:40:45;10.20;99.90
20446;DHT22;10382;49.140;9.234;2023-11-21T03:43:13;10.20;99.90
20446;DHT22;10382;49.140;9.234;2023-11-21T03:45:40;10.30;99.90
20446;DHT22;10382;49.140;9.234;2023-11-21T03:48:07;10.30;99.90
20446;DHT22;10382;49.140;9.234;2023-11-21T03:50:35;10.40;99.90
20446;DHT22;10382;49.140;9.234;2023-11-21T03:53:02;10.60;99.90
20446;DHT22;10382;49.140;9.234;2023-11-21T03:55:29;10.60;99.90
20446;DHT22;10382;49.140;9.234;2023-11-21T03:57:57;10.70;99.90
20446;DHT22;10382;49.140;9.234;2023-11-21T04:00:24;10.60;99.90
20446;DHT22;10382;49.140;9.234;2023-11-21T04:02:52;10.60;99.90
20446;DHT22;10382;49.140;9.234;2023-11-21T04:05:20;10.50;99.90
20446;DHT22;10382;49.140;9.234;2023-11-21T04:07:48;10.40;99.90
20446;DHT22;10382;49.140;9.234;2023-11-21T04:10:15;10.30;99.90
20446;DHT22;10382;49.140;9.234;2023-11-21T04:12:42;10.30;99.90
20446;DHT22;10382;49.140;9.234;2023-11-21T04:15:09;10.30;99.90
20446;DHT22;10382;49.140;9.234;2023-11-21T04:17:36;10.30;99.90
20446;DHT22;10382;49.140;9.234;2023-11-21T04:20:04;10.30;99.90
20446;DHT22;10382;49.140;9.234;2023-11-21T04:22:34;10.30;99.90
20446;DHT22;10382;49.140;9.234;2023-11-21T04:25:02;10.40;99.90
20446;DHT22;10382;49.140;9.234;2023-11-21T04:27:29;10.50;99.90
20446;DHT22;10382;49.140;9.234;2023-11-21T04:29:56;10.50;99.90
20446;DHT22;10382;49.140;9.234;2023-11-21T04:32:23;10.40;99.90
20446;DHT22;10382;49.140;9.234;2023-11-21T04:34:49;10.50;99.90
20446;DHT22;10382;49.140;9.234;2023-11-21T04:37:16;10.50;99.90
20446;DHT22;10382;49.140;9.234;2023-11-21T04:39:43;10.60;99.90
20446;DHT22;10382;49.140;9.234;2023-11-21T04:42:11;10.70;99.90
20446;DHT22;10382;49.140;9.234;2023-11-21T04:44:38;10.70;99.90
20446;DHT22;10382;49.140;9.234;2023-11-21T04:47:06;10.70;99.90
20446;DHT22;10382;49.140;9.234;2023-11-21T04:49:33;10.70;99.90
20446;DHT22;10382;49.140;9.234;2023-11-21T04:52:00;10.70;99.90
20446;DHT22;10382;49.140;9.234;2023-11-21T04:54:29;10.70;99.90
20446;DHT22;10382;49.140;9.234;2023-11-21T04:56:56;10.70;99.90
20446;DHT22;10382;49.140;9.234;2023-11-21T04:59:24;10.60;99.90
20446;DHT22;10382;49.140;9.234;2023-11-21T05:01:53;10.50;99.90
20446;DHT22;10382;49.140;9.234;2023-11-21T05:04:20;10.50;99.90
20446;DHT22;10382;49.140;9.234;2023-11-21T05:06:47;10.40;99.90
20446;DHT22;10382;49.140;9.234;2023-11-21T05:09:15;10.50;99.90
20446;DHT22;10382;49.140;9.234;2023-11-21T05:11:42;10.40;99.90
20446;DHT22;10382;49.140;9.234;2023-11-21T05:14:09;10.50;99.90
20446;DHT22;10382;49.140;9.234;2023-11-21T05:16:37;10.50;99.90
20446;DHT22;10382;49.140;9.234;2023-11-21T05:19:04;10.40;99.90
20446;DHT22;10382;49.140;9.234;2023-11-21T05:21:32;10.30;99.90
20446;DHT22;10382;49.140;9.234;2023-11-21T05:23:59;10.20;99.90
20446;DHT22;10382;49.140;9.234;2023-11-21T05:26:26;10.20;99.90
20446;DHT22;10382;49.140;9.234;2023-11-21T05:28:53;10.20;99.90
20446;DHT22;10382;49.140;9.234;2023-11-21T05:31:20;10.20;99.90
20446;DHT22;10382;49.140;9.234;2023-11-21T05:33:48;10.20;99.90
20446;DHT22;10382;49.140;9.234;2023-11-21T05:36:15;10.10;99.90
20446;DHT22;10382;49.140;9.234;2023-11-21T05:38:41;10.30;99.90
20446;DHT22;10382;49.140;9.234;2023-11-21T05:41:08;10.30;99.90
20446;DHT22;10382;49.140;9.234;2023-11-21T05:43:38;10.30;99.90
20446;DHT22;10382;49.140;9.234;2023-11-21T05:46:06;10.30;99.90
20446;DHT22;10382;49.140;9.234;2023-11-21T05:48:34;10.40;99.90
20446;DHT22;10382;49.140;9.234;2023-11-21T05:51:04;10.40;99.90
20446;DHT22;10382;49.140;9.234;2023-11-21T05:53:31;10.30;99.90
20446;DHT22;10382;49.140;9.234;2023-11-21T05:55:58;10.30;99.90
20446;DHT22;10382;49.140;9.234;2023-11-21T05:58:25;10.30;99.90
20446;DHT22;10382;49.140;9.234;2023-11-21T06:00:52;10.20;99.90
20446;DHT22;10382;49.140;9.234;2023-11-21T06:03:19;10.30;99.90
20446;DHT22;10382;49.140;9.234;2023-11-21T06:05:46;10.30;99.90
20446;DHT22;10382;49.140;9.234;2023-11-21T06:08:14;10.40;99.90
20446;DHT22;10382;49.140;9.234;2023-11-21T06:10:42;10.50;99.90
20446;DHT22;10382;49.140;9.234;2023-11-21T06:13:10;10.50;99.90
20446;DHT22;10382;49.140;9.234;2023-11-21T06:15:37;10.60;99.90
20446;DHT22;10382;49.140;9.234;2023-11-21T06:18:04;10.60;99.90
20446;DHT22;10382;49.140;9.234;2023-11-21T06:20:35;10.60;99.90
20446;DHT22;10382;49.140;9.234;2023-11-21T06:23:03;10.70;99.90
20446;DHT22;10382;49.140;9.234;2023-11-21T06:25:32;10.70;99.90
20446;DHT22;10382;49.140;9.234;2023-11-21T06:28:01;10.60;99.90
20446;DHT22;10382;49.140;9.234;2023-11-21T06:30:28;10.70;99.90
20446;DHT22;10382;49.140;9.234;2023-11-21T06:32:55;10.70;99.90
20446;DHT22;10382;49.140;9.234;2023-11-21T06:35:22;10.80;99.90
20446;DHT22;10382;49.140;9.234;2023-11-21T06:37:49;10.80;99.90
20446;DHT22;10382;49.140;9.234;2023-11-21T06:40:17;10.80;99.90
20446;DHT22;10382;49.140;9.234;2023-11-21T06:42:46;10.70;99.90
20446;DHT22;10382;49.140;9.234;2023-11-21T06:45:13;10.70;99.90
20446;DHT22;10382;49.140;9.234;2023-11-21T06:47:40;10.60;99.90
20446;DHT22;10382;49.140;9.234;2023-11-21T06:50:08;10.60;99.90
20446;DHT22;10382;49.140;9.234;2023-11-21T06:52:35;10.50;99.90
20446;DHT22;10382;49.140;9.234;2023-11-21T06:55:02;10.50;99.90
20446;DHT22;10382;49.140;9.234;2023-11-21T06:57:28;10.50;99.90
20446;DHT22;10382;49.140;9.234;2023-11-21T06:59:57;10.40;99.90
20446;DHT22;10382;49.140;9.234;2023-11-21T07:02:23;10.40;99.90
20446;DHT22;10382;49.140;9.234;2023-11-21T07:04:50;10.20;99.90
20446;DHT22;10382;49.140;9.234;2023-11-21T07:07:18;10.20;99.90
20446;DHT22;10382;49.140;9.234;2023-11-21T07:09:45;10.20;99.90
20446;DHT22;10382;49.140;9.234;2023-11-21T07:12:13;10.10;99.90
20446;DHT22;10382;49.140;9.234;2023-11-21T07:14:40;10.10;99.90
20446;DHT22;10382;49.140;9.234;2023-11-21T07:17:11;10.20;99.90
20446;DHT22;10382;49.140;9.234;2023-11-21T07:19:38;10.20;99.90
20446;DHT22;10382;49.140;9.234;2023-11-21T07:22:05;10.30;99.90
20446;DHT22;10382;49.140;9.234;2023-11-21T07:24:32;10.30;99.90
20446;DHT22;10382;49.140;9.234;2023-11-21T07:26:59;10.30;99.90
20446;DHT22;10382;49.140;9.234;2023-11-21T07:29:26;10.30;99.90
20446;DHT22;10382;49.140;9.234;2023-11-21T07:31:55;10.40;99.90
20446;DHT22;10382;49.140;9.234;2023-11-21T07:34:23;10.40;99.90
20446;DHT22;10382;49.140;9.234;2023-11-21T07:36:50;10.40;99.90
20446;DHT22;10382;49.140;9.234;2023-11-21T07:39:17;10.40;99.90
20446;DHT22;10382;49.140;9.234;2023-11-21T07:41:44;10.50;99.90
20446;DHT22;10382;49.140;9.234;2023-11-21T07:44:14;10.50;99.90
20446;DHT22;10382;49.140;9.234;2023-11-21T07:46:41;10.50;99.90
20446;DHT22;10382;49.140;9.234;2023-11-21T07:49:08;10.60;99.90
20446;DHT22;10382;49.140;9.234;2023-11-21T07:51:36;10.70;99.90
20446;DHT22;10382;49.140;9.234;2023-11-21T07:54:03;10.60;99.90
20446;DHT22;10382;49.140;9.234;2023-11-21T07:56:31;10.60;99.90
20446;DHT22;10382;49.140;9.234;2023-11-21T07:58:57;10.50;99.90
20446;DHT22;10382;49.140;9.234;2023-11-21T08:01:24;10.40;99.90
20446;DHT22;10382;49.140;9.234;2023-11-21T08:03:53;10.50;99.90
20446;DHT22;10382;49.140;9.234;2023-11-21T08:06:22;10.50;99.90
20446;DHT22;10382;49.140;9.234;2023-11-21T08:08:51;10.40;99.90
20446;DHT22;10382;49.140;9.234;2023-11-21T08:11:18;10.50;99.90
20446;DHT22;10382;49.140;9.234;2023-11-21T08:13:45;10.50;99.90
20446;DHT22;10382;49.140;9.234;2023-11-21T08:16:12;10.60;99.90
20446;DHT22;10382;49.140;9.234;2023-11-21T08:18:39;10.60;99.90
20446;DHT22;10382;49.140;9.234;2023-11-21T08:21:07;10.70;99.90
20446;DHT22;10382;49.140;9.234;2023-11-21T08:23:34;10.90;99.90
20446;DHT22;10382;49.140;9.234;2023-11-21T08:26:02;10.80;99.90
20446;DHT22;10382;49.140;9.234;2023-11-21T08:28:31;11.00;99.90
20446;DHT22;10382;49.140;9.234;2023-11-21T08:30:58;11.10;99.90
20446;DHT22;10382;49.140;9.234;2023-11-21T08:33:24;11.00;99.90
20446;DHT22;10382;49.140;9.234;2023-11-21T08:35:51;11.20;99.90
20446;DHT22;10382;49.140;9.234;2023-11-21T08:38:18;11.30;99.90
20446;DHT22;10382;49.140;9.234;2023-11-21T08:40:45;11.30;99.90
20446;DHT22;10382;49.140;9.234;2023-11-21T08:43:13;11.30;99.90
20446;DHT22;10382;49.140;9.234;2023-11-21T08:45:41;11.40;99.90
20446;DHT22;10382;49.140;9.234;2023-11-21T08:48:08;11.40;99.90
20446;DHT22;10382;49.140;9.234;2023-11-21T08:50:37;11.40;99.90
20446;DHT22;10382;49.140;9.234;2023-11-21T08:53:04;11.50;99.90
20446;DHT22;10382;49.140;9.234;2023-11-21T08:55:31;11.30;99.90
20446;DHT22;10382;49.140;9.234;2023-11-21T08:58:02;11.30;99.90
20446;DHT22;10382;49.140;9.234;2023-11-21T09:00:32;11.30;99.90
20446;DHT22;10382;49.140;9.234;2023-11-21T09:02:58;11.10;99.90
20446;DHT22;10382;49.140;9.234;2023-11-21T09:05:27;11.10;99.90
20446;DHT22;10382;49.140;9.234;2023-11-21T09:07:54;11.20;99.90
20446;DHT22;10382;49.140;9.234;2023-11-21T09:10:21;11.10;99.90
20446;DHT22;10382;49.140;9.234;2023-11-21T09:12:49;11.30;99.90
20446;DHT22;10382;49.140;9.234;2023-11-21T09:15:17;11.30;99.90
20446;DHT22;10382;49.140;9.234;2023-11-21T09:17:47;11.40;99.90
20446;DHT22;10382;49.140;9.234;2023-11-21T09:20:14;11.30;99.90
20446;DHT22;10382;49.140;9.234;2023-11-21T09:22:41;11.40;99.90
20446;DHT22;10382;49.140;9.234;2023-11-21T09:25:10;11.30;99.90
20446;DHT22;10382;49.140;9.234;2023-11-21T09:27:37;11.30;99.90
20446;DHT22;10382;49.140;9.234;2023-11-21T09:30:04;11.30;99.90
20446;DHT22;10382;49.140;9.234;2023-11-21T09:32:35;11.30;99.90
20446;DHT22;10382;49.140;9.234;2023-11-21T09:35:04;11.40;99.90
20446;DHT22;10382;49.140;9.234;2023-11-21T09:37:33;11.50;99.90
20446;DHT22;10382;49.140;9.234;2023-11-21T09:40:01;11.60;99.90
20446;DHT22;10382;49.140;9.234;2023-11-21T09:42:36;11.70;99.90
20446;DHT22;10382;49.140;9.234;2023-11-21T09:45:10;11.90;99.90
20446;DHT22;10382;49.140;9.234;2023-11-21T09:47:40;11.90;99.90
20446;DHT22;10382;49.140;9.234;2023-11-21T09:50:09;12.10;99.90
20446;DHT22;10382;49.140;9.234;2023-11-21T09:52:43;12.20;99.90
20446;DHT22;10382;49.140;9.234;2023-11-21T09:55:13;12.30;99.90
20446;DHT22;10382;49.140;9.234;2023-11-21T09:57:45;12.40;99.90
20446;DHT22;10382;49.140;9.234;2023-11-21T10:00:14;12.50;99.90
20446;DHT22;10382;49.140;9.234;2023-11-21T10:02:43;12.60;99.90
20446;DHT22;10382;49.140;9.234;2023-11-21T10:05:12;12.70;99.90
20446;DHT22;10382;49.140;9.234;2023-11-21T10:07:39;12.80;99.90
20446;DHT22;10382;49.140;9.234;2023-11-21T10:10:08;13.00;99.90
20446;DHT22;10382;49.140;9.234;2023-11-21T10:12:35;13.00;99.90
20446;DHT22;10382;49.140;9.234;2023-11-21T10:15:08;13.10;99.90
20446;DHT22;10382;49.140;9.234;2023-11-21T10:17:38;13.40;99.90
20446;DHT22;10382;49.140;9.234;2023-11-21T10:20:12;13.60;99.90
20446;DHT22;10382;49.140;9.234;2023-11-21T10:22:40;13.70;99.90
20446;DHT22;10382;49.140;9.234;2023-11-21T10:25:08;13.70;99.90
20446;DHT22;10382;49.140;9.234;2023-11-21T10:27:35;13.70;99.90
20446;DHT22;10382;49.140;9.234;2023-11-21T10:30:02;13.50;99.90
20446;DHT22;10382;49.140;9.234;2023-11-21T10:32:29;13.50;99.90
20446;DHT22;10382;49.140;9.234;2023-11-21T10:34:58;13.60;99.90
20446;DHT22;10382;49.140;9.234;2023-11-21T10:37:27;13.60;99.90
20446;DHT22;10382;49.140;9.234;2023-11-21T10:39:57;13.60;99.90
20446;DHT22;10382;49.140;9.234;2023-11-21T10:42:24;13.60;99.90
20446;DHT22;10382;49.140;9.234;2023-11-21T10:44:52;13.50;99.90
20446;DHT22;10382;49.140;9.234;2023-11-21T10:47:20;13.40;99.90
20446;DHT22;10382;49.140;9.234;2023-11-21T10:49:48;13.30;99.90
20446;DHT22;10382;49.140;9.234;2023-11-21T10:52:15;13.20;99.90
20446;DHT22;10382;49.140;9.234;2023-11-21T10:54:46;13.30;99.90
20446;DHT22;10382;49.140;9.234;2023-11-21T10:57:17;13.30;99.90
20446;DHT22;10382;49.140;9.234;2023-11-21T10:59:47;13.30;99.90
20446;DHT22;10382;49.140;9.234;2023-11-21T11:02:21;13.30;99.90
20446;DHT22;10382;49.140;9.234;2023-11-21T11:04:52;13.30;99.90
20446;DHT22;10382;49.140;9.234;2023-11-21T11:07:22;13.40;99.90
20446;DHT22;10382;49.140;9.234;2023-11-21T11:09:53;13.30;99.90
20446;DHT22;10382;49.140;9.234;2023-11-21T11:12:21;13.30;99.90
20446;DHT22;10382;49.140;9.234;2023-11-21T11:14:49;13.40;99.90
20446;DHT22;10382;49.140;9.234;2023-11-21T11:17:16;13.40;99.90
20446;DHT22;10382;49.140;9.234;2023-11-21T11:19:45;13.30;99.90
20446;DHT22;10382;49.140;9.234;2023-11-21T11:22:28;13.30;99.90
20446;DHT22;10382;49.140;9.234;2023-11-21T11:25:29;13.40;99.90
20446;DHT22;10382;49.140;9.234;2023-11-21T11:28:04;13.30;99.90
20446;DHT22;10382;49.140;9.234;2023-11-21T11:30:41;13.40;99.90
20446;DHT22;10382;49.140;9.234;2023-11-21T11:33:21;13.40;99.90
20446;DHT22;10382;49.140;9.234;2023-11-21T11:35:56;13.50;99.90
20446;DHT22;10382;49.140;9.234;2023-11-21T11:38:31;13.50;99.90
20446;DHT22;10382;49.140;9.234;2023-11-21T11:41:02;13.50;99.90
20446;DHT22;10382;49.140;9.234;2023-11-21T11:43:30;13.50;99.90
20446;DHT22;10382;49.140;9.234;2023-11-21T11:45:58;13.50;99.90
20446;DHT22;10382;49.140;9.234;2023-11-21T11:48:25;13.50;99.90
20446;DHT22;10382;49.140;9.234;2023-11-21T11:51:03;13.60;99.90
20446;DHT22;10382;49.140;9.234;2023-11-21T11:53:35;13.80;99.90
20446;DHT22;10382;49.140;9.234;2023-11-21T11:56:24;14.10;99.90
20446;DHT22;10382;49.140;9.234;2023-11-21T11:58:52;14.40;99.90
20446;DHT22;10382;49.140;9.234;2023-11-21T12:01:19;14.60;99.90
20446;DHT22;10382;49.140;9.234;2023-11-21T12:06:52;15.30;1.00
20446;DHT22;10382;49.140;9.234;2023-11-21T12:09:20;15.70;1.00
20446;DHT22;10382;49.140;9.234;2023-11-21T12:11:49;16.10;1.00
20446;DHT22;10382;49.140;9.234;2023-11-21T12:14:17;16.20;99.90
20446;DHT22;10382;49.140;9.234;2023-11-21T12:16:44;16.20;1.00
20446;DHT22;10382;49.140;9.234;2023-11-21T12:19:11;16.10;1.00
20446;DHT22;10382;49.140;9.234;2023-11-21T12:21:38;15.90;99.90
20446;DHT22;10382;49.140;9.234;2023-11-21T12:24:07;15.70;99.90
20446;DHT22;10382;49.140;9.234;2023-11-21T12:26:34;15.10;99.90
20446;DHT22;10382;49.140;9.234;2023-11-21T12:29:03;15.10;39.60
20446;DHT22;10382;49.140;9.234;2023-11-21T12:31:33;15.20;1.00
20446;DHT22;10382;49.140;9.234;2023-11-21T12:34:00;16.20;44.00
20446;DHT22;10382;49.140;9.234;2023-11-21T12:36:27;18.30;99.90
20446;DHT22;10382;49.140;9.234;2023-11-21T12:38:56;18.80;1.00
20446;DHT22;10382;49.140;9.234;2023-11-21T12:41:23;18.80;1.00
20446;DHT22;10382;49.140;9.234;2023-11-21T12:43:50;20.10;1.00
20446;DHT22;10382;49.140;9.234;2023-11-21T12:46:18;20.00;1.00
20446;DHT22;10382;49.140;9.234;2023-11-21T12:48:46;19.50;1.00
20446;DHT22;10382;49.140;9.234;2023-11-21T12:51:13;19.20;1.00
20446;DHT22;10382;49.140;9.234;2023-11-21T12:53:42;18.80;1.00
20446;DHT22;10382;49.140;9.234;2023-11-21T12:56:10;18.60;1.00
20446;DHT22;10382;49.140;9.234;2023-11-21T12:58:38;18.30;1.00
20446;DHT22;10382;49.140;9.234;2023-11-21T13:01:07;17.80;1.00
20446;DHT22;10382;49.140;9.234;2023-11-21T13:03:39;17.20;1.00
20446;DHT22;10382;49.140;9.234;2023-11-21T13:06:06;16.60;1.00
20446;DHT22;10382;49.140;9.234;2023-11-21T13:08:34;15.80;6.90
20446;DHT22;10382;49.140;9.234;2023-11-21T13:11:05;15.20;99.90
20446;DHT22;10382;49.140;9.234;2023-11-21T13:13:32;14.70;99.90
20446;DHT22;10382;49.140;9.234;2023-11-21T13:16:01;14.20;99.90
20446;DHT22;10382;49.140;9.234;2023-11-21T13:18:30;14.00;99.90
20446;DHT22;10382;49.140;9.234;2023-11-21T13:21:01;13.80;99.90
20446;DHT22;10382;49.140;9.234;2023-11-21T13:23:29;13.80;99.90
20446;DHT22;10382;49.140;9.234;2023-11-21T13:26:01;13.90;99.90
20446;DHT22;10382;49.140;9.234;2023-11-21T13:28:30;13.90;99.90
20446;DHT22;10382;49.140;9.234;2023-11-21T13:30:57;13.80;99.90
20446;DHT22;10382;49.140;9.234;2023-11-21T13:33:28;13.80;1.00
20446;DHT22;10382;49.140;9.234;2023-11-21T13:35:56;13.70;99.90
20446;DHT22;10382;49.140;9.234;2023-11-21T13:38:24;13.80;99.90
20446;DHT22;10382;49.140;9.234;2023-11-21T13:40:57;13.80;99.90
20446;DHT22;10382;49.140;9.234;2023-11-21T13:43:25;13.90;99.90
20446;DHT22;10382;49.140;9.234;2023-11-21T13:45:54;14.00;99.90
20446;DHT22;10382;49.140;9.234;2023-11-21T13:48:26;14.10;99.90
20446;DHT22;10382;49.140;9.234;2023-11-21T13:50:58;14.30;99.90
20446;DHT22;10382;49.140;9.234;2023-11-21T13:53:32;14.30;99.90
20446;DHT22;10382;49.140;9.234;2023-11-21T13:56:02;14.40;1.00
20446;DHT22;10382;49.140;9.234;2023-11-21T13:58:29;14.40;1.00
20446;DHT22;10382;49.140;9.234;2023-11-21T14:01:07;14.30;1.00
20446;DHT22;10382;49.140;9.234;2023-11-21T14:03:42;14.30;1.00
20446;DHT22;10382;49.140;9.234;2023-11-21T14:06:17;14.30;1.00
20446;DHT22;10382;49.140;9.234;2023-11-21T14:08:51;14.30;1.00
20446;DHT22;10382;49.140;9.234;2023-11-21T14:11:18;14.30;1.00
20446;DHT22;10382;49.140;9.234;2023-11-21T14:13:47;14.20;1.00
20446;DHT22;10382;49.140;9.234;2023-11-21T14:16:14;14.10;1.00
20446;DHT22;10382;49.140;9.234;2023-11-21T14:18:42;14.10;99.90
20446;DHT22;10382;49.140;9.234;2023-11-21T14:21:22;14.00;99.90
20446;DHT22;10382;49.140;9.234;2023-11-21T14:23:51;14.20;99.90
20446;DHT22;10382;49.140;9.234;2023-11-21T14:26:17;14.70;99.90
20446;DHT22;10382;49.140;9.234;2023-11-21T14:28:45;15.90;12.80
20446;DHT22;10382;49.140;9.234;2023-11-21T14:31:13;17.60;99.90
20446;DHT22;10382;49.140;9.234;2023-11-21T14:33:42;19.10;1.00
20446;DHT22;10382;49.140;9.234;2023-11-21T14:36:09;20.50;1.00
20446;DHT22;10382;49.140;9.234;2023-11-21T14:38:36;21.60;1.00
20446;DHT22;10382;49.140;9.234;2023-11-21T14:41:06;22.10;1.00
20446;DHT22;10382;49.140;9.234;2023-11-21T14:43:34;21.60;99.90
20446;DHT22;10382;49.140;9.234;2023-11-21T14:46:02;20.80;99.90
20446;DHT22;10382;49.140;9.234;2023-11-21T14:48:32;19.90;99.90
20446;DHT22;10382;49.140;9.234;2023-11-21T14:51:08;19.10;1.00
20446;DHT22;10382;49.140;9.234;2023-11-21T14:53:56;18.40;1.00
20446;DHT22;10382;49.140;9.234;2023-11-21T14:56:27;17.70;1.00
20446;DHT22;10382;49.140;9.234;2023-11-21T14:58:57;17.10;1.00
20446;DHT22;10382;49.140;9.234;2023-11-21T15:01:23;16.60;1.00
20446;DHT22;10382;49.140;9.234;2023-11-21T15:04:08;16.20;1.00
20446;DHT22;10382;49.140;9.234;2023-11-21T15:06:40;15.70;1.00
20446;DHT22;10382;49.140;9.234;2023-11-21T15:09:08;15.40;23.90
20446;DHT22;10382;49.140;9.234;2023-11-21T15:11:50;15.20;99.90
20446;DHT22;10382;49.140;9.234;2023-11-21T15:14:21;14.90;99.90
20446;DHT22;10382;49.140;9.234;2023-11-21T15:16:50;14.60;99.90
20446;DHT22;10382;49.140;9.234;2023-11-21T15:19:19;14.40;99.90
20446;DHT22;10382;49.140;9.234;2023-11-21T15:21:51;14.20;1.00
20446;DHT22;10382;49.140;9.234;2023-11-21T15:24:18;14.00;9.60
20446;DHT22;10382;49.140;9.234;2023-11-21T15:26:45;13.80;99.90
20446;DHT22;10382;49.140;9.234;2023-11-21T15:29:13;13.60;99.90
20446;DHT22;10382;49.140;9.234;2023-11-21T15:31:40;13.50;99.90
20446;DHT22;10382;49.140;9.234;2023-11-21T15:34:11;13.30;99.90
20446;DHT22;10382;49.140;9.234;2023-11-21T15:36:38;13.20;99.90
20446;DHT22;10382;49.140;9.234;2023-11-21T15:39:05;13.00;99.90
20446;DHT22;10382;49.140;9.234;2023-11-21T15:41:33;12.90;99.90
20446;DHT22;10382;49.140;9.234;2023-11-21T15:44:00;12.80;99.90